createdAt,value
2023-06-29T00:00:49.484Z,19.96
2023-06-29T00:03:21.921Z,19.93
2023-06-29T00:05:56.674Z,19.91
2023-06-29T00:08:30.851Z,19.88
2023-06-29T00:11:04.172Z,19.85
2023-06-29T00:13:39.271Z,19.82
2023-06-29T00:16:11.795Z,19.80
2023-06-29T00:18:44.212Z,19.78
2023-06-29T00:21:16.819Z,19.70
2023-06-29T00:23:49.214Z,19.67
2023-06-29T00:26:24.075Z,19.68
2023-06-29T00:28:59.401Z,19.70
2023-06-29T00:31:32.047Z,19.71
2023-06-29T00:34:04.518Z,19.73
2023-06-29T00:36:37.945Z,19.74
2023-06-29T00:39:10.657Z,19.75
2023-06-29T00:41:58.053Z,19.76
2023-06-29T00:44:33.039Z,19.76
2023-06-29T00:47:05.953Z,19.77
2023-06-29T00:49:38.425Z,19.77
2023-06-29T00:52:12.335Z,19.77
2023-06-29T00:54:45.899Z,19.78
2023-06-29T00:57:18.622Z,19.78
2023-06-29T00:59:53.592Z,19.77
2023-06-29T01:02:26.325Z,19.77
2023-06-29T01:04:58.848Z,19.78
2023-06-29T01:07:37.949Z,19.79
2023-06-29T01:10:12.930Z,19.79
2023-06-29T01:12:46.880Z,19.80
2023-06-29T01:15:22.250Z,19.80
2023-06-29T01:18:00.063Z,19.80
2023-06-29T01:20:35.355Z,19.80
2023-06-29T01:23:16.240Z,19.80
2023-06-29T01:25:51.585Z,19.80
2023-06-29T01:28:23.970Z,19.80
2023-06-29T01:30:57.296Z,19.80
2023-06-29T01:33:30.923Z,19.80
2023-06-29T01:36:10.615Z,19.80
2023-06-29T01:38:52.898Z,19.80
2023-06-29T01:41:30.703Z,19.80
2023-06-29T01:44:07.878Z,19.79
2023-06-29T01:46:41.326Z,19.79
2023-06-29T01:49:14.112Z,19.78
2023-06-29T01:51:46.642Z,19.78
2023-06-29T01:54:18.998Z,19.78
2023-06-29T01:56:54.053Z,19.77
2023-06-29T01:59:26.519Z,19.78
2023-06-29T02:01:58.929Z,19.77
2023-06-29T02:04:31.295Z,19.76
2023-06-29T02:07:04.012Z,19.76
2023-06-29T02:09:36.537Z,19.76
2023-06-29T02:12:13.012Z,19.75
2023-06-29T02:14:45.405Z,19.75
2023-06-29T02:17:17.937Z,19.74
2023-06-29T02:19:50.355Z,19.73
2023-06-29T02:22:22.783Z,19.61
2023-06-29T02:24:55.184Z,19.61
2023-06-29T02:27:33.357Z,19.62
2023-06-29T02:30:05.744Z,19.62
2023-06-29T02:32:38.196Z,19.63
2023-06-29T02:35:11.530Z,19.64
2023-06-29T02:37:44.037Z,19.64
2023-06-29T02:40:17.285Z,19.65
2023-06-29T02:42:52.178Z,19.65
2023-06-29T02:45:24.579Z,19.65
2023-06-29T02:47:58.062Z,19.65
2023-06-29T02:50:30.570Z,19.67
2023-06-29T02:53:03.068Z,19.67
2023-06-29T02:55:36.229Z,19.66
2023-06-29T02:58:11.569Z,19.65
2023-06-29T03:00:43.862Z,19.63
2023-06-29T03:03:16.263Z,19.61
2023-06-29T03:05:48.812Z,19.59
2023-06-29T03:08:21.321Z,19.58
2023-06-29T03:10:53.782Z,19.56
2023-06-29T03:13:28.877Z,19.54
2023-06-29T03:16:02.547Z,19.53
2023-06-29T03:18:34.937Z,19.51
2023-06-29T03:21:16.215Z,19.50
2023-06-29T03:23:50.952Z,19.49
2023-06-29T03:26:23.589Z,19.48
2023-06-29T03:28:58.514Z,19.46
2023-06-29T03:31:30.938Z,19.45
2023-06-29T03:34:05.461Z,19.44
2023-06-29T03:36:38.117Z,19.43
2023-06-29T03:39:10.506Z,19.42
2023-06-29T03:41:42.922Z,19.41
2023-06-29T03:44:17.855Z,19.39
2023-06-29T03:46:50.366Z,19.38
2023-06-29T03:49:22.809Z,19.37
2023-06-29T03:51:55.275Z,19.37
2023-06-29T03:54:28.051Z,19.37
2023-06-29T03:57:00.584Z,19.39
2023-06-29T03:59:35.618Z,19.39
2023-06-29T04:02:09.892Z,19.40
2023-06-29T04:04:43.891Z,19.40
2023-06-29T04:07:16.537Z,19.39
2023-06-29T04:09:49.016Z,19.39
2023-06-29T04:12:21.436Z,19.39
2023-06-29T04:14:56.361Z,19.39
2023-06-29T04:17:28.842Z,19.40
2023-06-29T04:20:01.222Z,19.41
2023-06-29T04:22:33.508Z,19.31
2023-06-29T04:25:05.857Z,19.33
2023-06-29T04:27:38.453Z,19.35
2023-06-29T04:30:14.399Z,19.36
2023-06-29T04:32:47.002Z,19.37
2023-06-29T04:35:19.571Z,19.39
2023-06-29T04:37:52.115Z,19.41
2023-06-29T04:40:24.432Z,19.44
2023-06-29T04:42:59.628Z,19.47
2023-06-29T04:45:35.599Z,19.50
2023-06-29T04:48:08.443Z,19.52
2023-06-29T04:50:40.788Z,19.55
2023-06-29T04:53:13.776Z,19.57
2023-06-29T04:55:47.019Z,19.59
2023-06-29T04:58:19.624Z,19.60
2023-06-29T05:00:55.477Z,19.62
2023-06-29T05:03:29.313Z,19.63
2023-06-29T05:06:01.883Z,19.66
2023-06-29T05:08:34.537Z,19.70
2023-06-29T05:11:06.895Z,19.74
2023-06-29T05:13:39.252Z,19.78
2023-06-29T05:16:14.422Z,19.83
2023-06-29T05:18:46.808Z,19.88
2023-06-29T05:21:19.978Z,19.94
2023-06-29T05:23:52.365Z,19.99
2023-06-29T05:26:24.877Z,20.03
2023-06-29T05:29:05.026Z,20.07
2023-06-29T05:31:40.947Z,20.11
2023-06-29T05:34:13.324Z,20.14
2023-06-29T05:36:45.984Z,20.16
2023-06-29T05:39:18.663Z,20.19
2023-06-29T05:41:50.955Z,20.23
2023-06-29T05:44:23.389Z,20.26
2023-06-29T05:46:58.371Z,20.30
2023-06-29T05:49:30.761Z,20.35
2023-06-29T05:52:03.142Z,20.39
2023-06-29T05:54:35.433Z,20.43
2023-06-29T05:57:08.517Z,20.47
2023-06-29T05:59:40.864Z,20.50
2023-06-29T06:02:15.829Z,20.52
2023-06-29T06:04:48.258Z,20.54
2023-06-29T06:07:30.757Z,20.55
2023-06-29T06:10:03.238Z,20.55
2023-06-29T06:12:35.603Z,20.55
2023-06-29T06:15:12.730Z,20.56
2023-06-29T06:17:49.698Z,20.56
2023-06-29T06:20:22.194Z,20.55
2023-06-29T06:22:54.638Z,20.44
2023-06-29T06:25:27.814Z,20.45
2023-06-29T06:28:00.389Z,20.48
2023-06-29T06:30:32.987Z,20.51
2023-06-29T06:33:08.118Z,20.54
2023-06-29T06:35:40.785Z,20.58
2023-06-29T06:38:13.177Z,20.64
2023-06-29T06:40:45.720Z,20.71
2023-06-29T06:43:19.096Z,20.79
2023-06-29T06:45:51.447Z,20.85
2023-06-29T06:48:26.592Z,20.93
2023-06-29T06:50:59.012Z,21.00
2023-06-29T06:53:31.379Z,21.04
2023-06-29T06:56:03.718Z,21.07
2023-06-29T06:58:40.127Z,21.09
2023-06-29T07:01:12.749Z,21.10
2023-06-29T07:03:47.965Z,21.10
2023-06-29T07:06:20.438Z,21.10
2023-06-29T07:08:53.024Z,21.10
2023-06-29T07:11:25.369Z,21.10
2023-06-29T07:13:57.730Z,21.09
2023-06-29T07:16:30.227Z,21.08
2023-06-29T07:24:25.886Z,21.11
2023-06-29T07:26:58.296Z,21.13
2023-06-29T07:29:31.783Z,21.14
2023-06-29T07:32:04.184Z,21.17
2023-06-29T07:34:39.082Z,21.21
2023-06-29T07:37:11.995Z,21.25
2023-06-29T07:39:44.382Z,21.30
2023-06-29T07:42:26.370Z,21.38
2023-06-29T07:45:07.800Z,21.47
2023-06-29T07:47:40.423Z,21.60
2023-06-29T07:50:16.014Z,21.70
2023-06-29T07:52:48.371Z,21.81
2023-06-29T07:55:20.816Z,21.96
2023-06-29T08:00:28.703Z,22.29
2023-06-29T08:03:01.107Z,22.44
2023-06-29T08:08:11.916Z,22.71
2023-06-29T08:10:45.637Z,22.84
2023-06-29T08:13:18.120Z,22.96
2023-06-29T08:15:50.412Z,23.03
2023-06-29T08:18:22.764Z,23.15
2023-06-29T08:20:57.792Z,23.27
2023-06-29T08:23:30.263Z,23.54
2023-06-29T08:26:02.703Z,23.88
2023-06-29T08:28:35.084Z,24.04
2023-06-29T08:31:07.989Z,24.11
2023-06-29T08:33:40.605Z,24.11
2023-06-29T08:36:16.675Z,24.04
2023-06-29T08:38:50.743Z,23.97
2023-06-29T08:41:23.519Z,23.85
2023-06-29T08:43:56.341Z,23.76
2023-06-29T08:46:31.588Z,23.68
2023-06-29T08:49:07.443Z,23.57
2023-06-29T08:51:48.479Z,23.51
2023-06-29T08:54:22.545Z,23.45
2023-06-29T08:56:56.535Z,23.42
2023-06-29T08:59:31.499Z,23.39
2023-06-29T09:02:04.533Z,23.39
2023-06-29T09:04:37.752Z,23.42
2023-06-29T09:07:13.553Z,23.53
2023-06-29T09:09:46.304Z,23.68
2023-06-29T09:12:19.928Z,23.79
2023-06-29T09:14:52.753Z,23.91
2023-06-29T09:17:26.877Z,24.02
2023-06-29T09:20:01.849Z,24.17
2023-06-29T09:22:36.823Z,24.33
2023-06-29T09:25:27.731Z,24.49
2023-06-29T09:28:07.924Z,24.63
2023-06-29T09:30:42.424Z,24.71
2023-06-29T09:33:16.945Z,24.74
2023-06-29T09:35:51.476Z,24.76
2023-06-29T09:38:26.737Z,24.81
2023-06-29T09:41:00.936Z,24.90
2023-06-29T09:43:35.532Z,25.06
2023-06-29T09:46:13.710Z,25.19
2023-06-29T09:51:26.502Z,25.29
2023-06-29T09:54:01.418Z,25.34
2023-06-29T09:56:36.749Z,25.37
2023-06-29T09:59:10.602Z,25.41
2023-06-29T10:01:43.955Z,25.50
2023-06-29T10:04:16.324Z,25.58
2023-06-29T10:06:53.720Z,25.66
2023-06-29T10:09:30.427Z,25.81
2023-06-29T10:12:06.711Z,25.96
2023-06-29T10:14:41.533Z,26.09
2023-06-29T10:17:20.684Z,26.14
2023-06-29T10:19:57.334Z,26.15
2023-06-29T10:22:33.487Z,25.96
2023-06-29T10:25:14.972Z,25.91
2023-06-29T10:27:49.532Z,25.88
2023-06-29T10:30:24.499Z,25.87
2023-06-29T10:32:57.254Z,25.91
2023-06-29T10:35:29.669Z,25.99
2023-06-29T10:38:02.797Z,26.08
2023-06-29T10:40:38.690Z,26.12
2023-06-29T10:43:13.264Z,26.19
2023-06-29T10:45:45.897Z,26.42
2023-06-29T10:48:42.840Z,26.65
2023-06-29T10:51:18.309Z,26.93
2023-06-29T10:53:53.783Z,27.14
2023-06-29T10:56:38.369Z,27.27
2023-06-29T10:59:14.475Z,27.34
2023-06-29T11:01:47.373Z,27.47
2023-06-29T11:04:20.845Z,27.59
2023-06-29T11:06:53.628Z,27.70
2023-06-29T11:09:26.433Z,27.81
2023-06-29T11:12:01.465Z,27.90
2023-06-29T11:14:41.488Z,27.93
2023-06-29T11:17:14.635Z,27.92
2023-06-29T11:19:51.204Z,27.84
2023-06-29T11:22:24.104Z,27.77
2023-06-29T11:24:56.421Z,27.71
2023-06-29T11:27:32.418Z,27.62
2023-06-29T11:30:06.136Z,27.57
2023-06-29T11:32:39.188Z,27.52
2023-06-29T11:35:14.023Z,27.43
2023-06-29T11:37:46.436Z,27.33
2023-06-29T11:40:23.954Z,27.25
2023-06-29T11:42:59.347Z,27.20
2023-06-29T11:45:32.125Z,27.16
2023-06-29T11:48:05.817Z,27.14
2023-06-29T11:50:38.867Z,27.07
2023-06-29T11:53:13.197Z,26.95
2023-06-29T11:55:54.112Z,26.88
2023-06-29T11:58:38.115Z,26.83
2023-06-29T12:01:11.272Z,26.72
2023-06-29T12:03:44.293Z,26.55
2023-06-29T12:06:16.756Z,26.38
2023-06-29T12:08:49.395Z,26.30
2023-06-29T12:11:23.444Z,26.22
2023-06-29T12:13:59.749Z,26.12
2023-06-29T12:19:15.369Z,25.96
2023-06-29T12:21:48.329Z,25.86
2023-06-29T12:24:21.931Z,25.78
2023-06-29T12:26:54.530Z,25.79
2023-06-29T12:29:29.547Z,25.86
2023-06-29T12:32:04.526Z,25.92
2023-06-29T12:34:36.812Z,26.07
2023-06-29T12:37:09.332Z,26.34
2023-06-29T12:39:41.658Z,26.60
2023-06-29T12:42:13.976Z,26.95
2023-06-29T12:44:48.921Z,27.37
2023-06-29T12:47:22.838Z,27.63
2023-06-29T12:49:55.298Z,27.65
2023-06-29T12:52:27.923Z,27.64
2023-06-29T12:55:00.360Z,27.54
2023-06-29T12:57:33.884Z,27.40
2023-06-29T13:00:10.077Z,27.18
2023-06-29T13:02:42.615Z,26.99
2023-06-29T13:05:15.813Z,26.76
2023-06-29T13:07:48.532Z,26.46
2023-06-29T13:10:21.592Z,26.03
2023-06-29T13:12:54.022Z,25.59
2023-06-29T13:15:28.984Z,25.20
2023-06-29T13:18:02.484Z,24.87
2023-06-29T13:20:34.866Z,24.64
2023-06-29T13:23:07.290Z,24.53
2023-06-29T13:25:39.663Z,24.46
2023-06-29T13:28:13.327Z,24.41
2023-06-29T13:30:48.321Z,24.42
2023-06-29T13:33:20.675Z,24.54
2023-06-29T13:35:53.134Z,24.86
2023-06-29T13:38:25.545Z,25.39
2023-06-29T13:40:57.843Z,26.08
2023-06-29T13:43:30.178Z,27.39
2023-06-29T13:46:05.410Z,29.22
2023-06-29T13:48:38.051Z,30.04
2023-06-29T13:51:10.423Z,30.28
2023-06-29T13:53:42.745Z,30.48
2023-06-29T13:56:15.234Z,30.69
2023-06-29T13:58:47.621Z,30.82
2023-06-29T14:01:22.767Z,31.14
2023-06-29T14:03:55.358Z,31.32
2023-06-29T14:06:28.988Z,31.32
2023-06-29T14:09:01.345Z,31.42
2023-06-29T14:11:33.883Z,31.50
2023-06-29T14:14:06.594Z,31.46
2023-06-29T14:16:44.194Z,31.31
2023-06-29T14:19:16.558Z,31.12
2023-06-29T14:21:48.830Z,29.92
2023-06-29T14:24:21.184Z,28.96
2023-06-29T14:26:55.060Z,28.73
2023-06-29T14:29:27.589Z,28.38
2023-06-29T14:32:02.497Z,27.82
2023-06-29T14:34:34.924Z,27.48
2023-06-29T14:37:07.282Z,27.30
2023-06-29T14:39:39.598Z,27.21
2023-06-29T14:42:13.358Z,27.17
2023-06-29T14:44:46.354Z,27.14
2023-06-29T14:47:22.790Z,27.09
2023-06-29T14:49:55.193Z,26.94
2023-06-29T14:52:27.641Z,26.75
2023-06-29T14:54:59.935Z,26.52
2023-06-29T14:57:32.327Z,26.37
2023-06-29T15:00:04.659Z,26.32
2023-06-29T15:02:39.827Z,26.29
2023-06-29T15:05:13.024Z,26.28
2023-06-29T15:07:45.576Z,26.19
2023-06-29T15:10:17.973Z,26.01
2023-06-29T15:12:50.385Z,25.87
2023-06-29T15:15:23.649Z,25.77
2023-06-29T15:17:58.765Z,25.68
2023-06-29T15:20:31.196Z,25.61
2023-06-29T15:23:03.624Z,25.56
2023-06-29T15:25:37.769Z,25.55
2023-06-29T15:28:11.831Z,25.79
2023-06-29T15:30:52.835Z,26.97
2023-06-29T15:33:28.966Z,28.64
2023-06-29T15:36:01.310Z,29.05
2023-06-29T15:38:35.001Z,28.99
2023-06-29T15:41:07.437Z,29.01
2023-06-29T15:43:39.884Z,28.93
2023-06-29T15:46:12.432Z,28.64
2023-06-29T15:48:47.408Z,28.02
2023-06-29T15:51:19.963Z,27.79
2023-06-29T15:53:52.810Z,28.57
2023-06-29T15:56:25.163Z,30.06
2023-06-29T15:58:58.383Z,30.87
2023-06-29T16:01:30.714Z,31.27
2023-06-29T16:04:05.847Z,31.14
2023-06-29T16:06:39.893Z,30.88
2023-06-29T16:09:12.239Z,30.56
2023-06-29T16:11:44.652Z,29.56
2023-06-29T16:14:16.986Z,27.83
2023-06-29T16:16:49.545Z,26.60
2023-06-29T16:19:24.645Z,26.26
2023-06-29T16:21:57.031Z,25.64
2023-06-29T16:24:29.424Z,25.01
2023-06-29T16:27:01.921Z,24.51
2023-06-29T16:29:34.435Z,23.94
2023-06-29T16:32:07.066Z,23.49
2023-06-29T16:34:42.312Z,23.22
2023-06-29T16:37:17.431Z,22.97
2023-06-29T16:39:49.906Z,22.66
2023-06-29T16:42:22.290Z,22.45
2023-06-29T16:44:54.660Z,22.30
2023-06-29T16:47:27.031Z,22.10
2023-06-29T16:50:01.983Z,21.90
2023-06-29T16:52:34.443Z,21.69
2023-06-29T16:55:07.838Z,21.39
2023-06-29T16:57:40.318Z,21.04
2023-06-29T17:00:13.901Z,20.76
2023-06-29T17:02:46.465Z,20.58
2023-06-29T17:05:21.676Z,20.47
2023-06-29T17:07:56.774Z,20.33
2023-06-29T17:10:29.700Z,20.19
2023-06-29T17:13:01.987Z,20.05
2023-06-29T17:15:34.310Z,19.94
2023-06-29T17:18:06.629Z,19.84
2023-06-29T17:20:41.714Z,19.75
2023-06-29T17:23:14.242Z,19.68
2023-06-29T17:25:50.571Z,19.64
2023-06-29T17:28:24.357Z,19.63
2023-06-29T17:30:57.131Z,19.65
2023-06-29T17:33:35.339Z,19.66
2023-06-29T17:36:20.226Z,19.66
2023-06-29T17:38:52.644Z,19.65
2023-06-29T17:41:25.043Z,19.65
2023-06-29T17:43:57.433Z,19.63
2023-06-29T17:46:30.235Z,19.57
2023-06-29T17:49:02.555Z,19.37
2023-06-29T17:51:37.478Z,19.07
2023-06-29T17:54:10.080Z,18.75
2023-06-29T17:56:42.607Z,18.57
2023-06-29T17:59:14.942Z,18.44
2023-06-29T18:01:47.280Z,18.36
2023-06-29T18:04:19.733Z,18.32
2023-06-29T18:06:55.269Z,18.28
2023-06-29T18:09:27.763Z,18.22
2023-06-29T18:12:00.133Z,18.17
2023-06-29T18:14:32.514Z,18.10
2023-06-29T18:17:05.953Z,18.02
2023-06-29T18:19:38.312Z,17.95
2023-06-29T18:22:13.741Z,17.81
2023-06-29T18:24:46.143Z,17.70
2023-06-29T18:27:18.728Z,17.69
2023-06-29T18:29:51.023Z,17.68
2023-06-29T18:32:23.362Z,17.65
2023-06-29T18:34:55.635Z,17.61
2023-06-29T18:37:30.663Z,17.60
2023-06-29T18:40:03.042Z,17.59
2023-06-29T18:42:35.298Z,17.59
2023-06-29T18:45:07.822Z,17.57
2023-06-29T18:47:40.636Z,17.56
2023-06-29T18:50:13.876Z,17.55
2023-06-29T18:52:48.815Z,17.57
2023-06-29T18:55:21.306Z,17.57
2023-06-29T18:57:53.820Z,17.57
2023-06-29T19:00:26.827Z,17.56
2023-06-29T19:03:01.262Z,17.56
2023-06-29T19:05:34.743Z,17.58
2023-06-29T19:08:09.880Z,17.61
2023-06-29T19:10:42.222Z,17.64
2023-06-29T19:13:15.404Z,17.68
2023-06-29T19:15:48.208Z,17.72
2023-06-29T19:18:23.636Z,17.75
2023-06-29T19:20:57.207Z,17.78
2023-06-29T19:23:32.047Z,17.80
2023-06-29T19:26:04.628Z,17.82
2023-06-29T19:28:37.027Z,17.85
2023-06-29T19:31:09.428Z,17.87
2023-06-29T19:33:42.162Z,17.87
2023-06-29T19:36:14.822Z,17.85
2023-06-29T19:38:49.931Z,17.83
2023-06-29T19:41:22.367Z,17.82
2023-06-29T19:43:54.757Z,17.82
2023-06-29T19:46:27.267Z,17.82
2023-06-29T19:48:59.772Z,17.83
2023-06-29T19:51:35.195Z,17.82
2023-06-29T19:54:10.363Z,17.81
2023-06-29T19:56:42.815Z,17.82
2023-06-29T19:59:15.203Z,17.83
2023-06-29T20:01:47.593Z,17.83
2023-06-29T20:04:20.138Z,17.83
2023-06-29T20:06:52.771Z,17.83
2023-06-29T20:09:29.887Z,17.83
2023-06-29T20:12:02.188Z,17.83
2023-06-29T20:14:35.388Z,17.83
2023-06-29T20:17:08.077Z,17.84
2023-06-29T20:19:40.524Z,17.85
2023-06-29T20:22:12.900Z,17.79
2023-06-29T20:24:47.985Z,17.75
2023-06-29T20:27:20.682Z,17.75
2023-06-29T20:29:54.232Z,17.74
2023-06-29T20:32:27.836Z,17.72
2023-06-29T20:35:00.237Z,17.69
2023-06-29T20:37:32.682Z,17.68
2023-06-29T20:40:07.923Z,17.66
2023-06-29T20:42:40.634Z,17.65
2023-06-29T20:45:15.421Z,17.64
2023-06-29T20:47:48.104Z,17.63
2023-06-29T20:50:20.585Z,17.61
2023-06-29T20:52:52.977Z,17.59
2023-06-29T20:55:27.936Z,17.57
2023-06-29T20:58:01.490Z,17.55
2023-06-29T21:00:35.470Z,17.55
2023-06-29T21:03:09.058Z,17.55
2023-06-29T21:05:41.517Z,17.55
2023-06-29T21:08:14.009Z,17.54
2023-06-29T21:10:49.084Z,17.53
2023-06-29T21:13:22.272Z,17.52
2023-06-29T21:15:54.896Z,17.53
2023-06-29T21:18:28.278Z,17.55
2023-06-29T21:21:01.253Z,17.56
2023-06-29T21:23:33.865Z,17.55
2023-06-29T21:26:09.538Z,17.55
2023-06-29T21:28:46.728Z,17.56
2023-06-29T21:31:20.133Z,17.57
2023-06-29T21:33:52.819Z,17.59
2023-06-29T21:36:25.572Z,17.59
2023-06-29T21:38:58.464Z,17.60
2023-06-29T21:41:33.427Z,17.61
2023-06-29T21:44:05.710Z,17.61
2023-06-29T21:46:38.214Z,17.60
2023-06-29T21:49:10.599Z,17.56
2023-06-29T21:51:43.046Z,17.52
2023-06-29T21:54:15.531Z,17.47
2023-06-29T21:56:52.825Z,17.42
2023-06-29T21:59:25.165Z,17.34
2023-06-29T22:01:57.494Z,17.26
2023-06-29T22:04:29.889Z,17.19
2023-06-29T22:07:15.422Z,17.14
2023-06-29T22:09:48.681Z,17.10
2023-06-29T22:12:24.461Z,17.06
2023-06-29T22:14:56.925Z,17.02
2023-06-29T22:17:29.521Z,16.97
2023-06-29T22:20:18.100Z,16.94
2023-06-29T22:22:50.488Z,16.78
2023-06-29T22:25:22.873Z,16.67
2023-06-29T22:27:58.116Z,16.62
2023-06-29T22:30:30.523Z,16.57
2023-06-29T22:33:02.913Z,16.51
2023-06-29T22:35:35.713Z,16.46
2023-06-29T22:38:09.836Z,16.41
2023-06-29T22:40:42.977Z,16.37
2023-06-29T22:43:17.990Z,16.32
2023-06-29T22:45:50.309Z,16.28
2023-06-29T22:48:23.914Z,16.23
2023-06-29T22:50:56.869Z,16.17
2023-06-29T22:53:29.847Z,16.13
2023-06-29T22:56:02.390Z,16.07
2023-06-29T22:58:37.466Z,16.02
2023-06-29T23:01:09.793Z,15.98
2023-06-29T23:03:42.181Z,15.95
2023-06-29T23:06:14.800Z,15.93
2023-06-29T23:08:48.008Z,15.89
2023-06-29T23:11:20.410Z,15.83
2023-06-29T23:13:57.147Z,15.77
2023-06-29T23:16:32.907Z,15.73
2023-06-29T23:19:05.792Z,15.67
2023-06-29T23:21:38.094Z,15.62
2023-06-29T23:24:15.524Z,15.58
2023-06-29T23:26:48.937Z,15.52
2023-06-29T23:29:23.891Z,15.46
2023-06-29T23:31:56.269Z,15.40
2023-06-29T23:34:29.299Z,15.33
2023-06-29T23:37:01.885Z,15.28
2023-06-29T23:39:37.829Z,15.23
2023-06-29T23:42:11.361Z,15.16
2023-06-29T23:44:47.588Z,15.12
2023-06-29T23:47:21.586Z,15.07
2023-06-29T23:49:53.903Z,15.01
2023-06-29T23:52:26.309Z,14.96
2023-06-29T23:54:58.597Z,14.90
2023-06-29T23:57:31.104Z,14.86
